sensor_id;sensor_type;location;lat;lon;timestamp;pressure;altitude;pressure_sealevel;temperature;humidity
37291;BME280;23175;-33.706;151.094;2022-12-18T00:00:42;100493.23;;;13.85;52.29
37291;BME280;23175;-33.706;151.094;2022-12-18T00:03:12;100491.84;;;14.08;50.94
37291;BME280;23175;-33.706;151.094;2022-12-18T00:05:48;100485.52;;;12.54;53.12
37291;BME280;23175;-33.706;151.094;2022-12-18T00:08:19;100484.61;;;13.69;51.00
37291;BME280;23175;-33.706;151.094;2022-12-18T00:10:49;100485.23;;;13.78;50.39
37291;BME280;23175;-33.706;151.094;2022-12-18T00:13:19;100488.91;;;14.27;51.40
37291;BME280;23175;-33.706;151.094;2022-12-18T00:15:49;100489.43;;;13.46;51.03
37291;BME280;23175;-33.706;151.094;2022-12-18T00:18:19;100481.92;;;14.08;50.27
37291;BME280;23175;-33.706;151.094;2022-12-18T00:20:50;100481.14;;;13.54;49.87
37291;BME280;23175;-33.706;151.094;2022-12-18T00:23:20;100481.89;;;15.82;47.80
37291;BME280;23175;-33.706;151.094;2022-12-18T00:25:51;100492.39;;;14.37;49.20
37291;BME280;23175;-33.706;151.094;2022-12-18T00:28:21;100498.95;;;10.73;55.12
37291;BME280;23175;-33.706;151.094;2022-12-18T00:30:51;100509.01;;;11.14;57.33
37291;BME280;23175;-33.706;151.094;2022-12-18T00:33:28;100515.92;;;11.36;59.52
37291;BME280;23175;-33.706;151.094;2022-12-18T00:36:03;100520.83;;;11.73;57.90
37291;BME280;23175;-33.706;151.094;2022-12-18T00:38:33;100518.16;;;14.19;53.29
37291;BME280;23175;-33.706;151.094;2022-12-18T00:41:04;100518.45;;;12.62;54.99
37291;BME280;23175;-33.706;151.094;2022-12-18T00:43:35;100517.17;;;12.41;55.35
37291;BME280;23175;-33.706;151.094;2022-12-18T00:46:05;100515.04;;;12.97;54.56
37291;BME280;23175;-33.706;151.094;2022-12-18T00:48:35;100520.86;;;13.30;55.04
37291;BME280;23175;-33.706;151.094;2022-12-18T00:51:10;100514.07;;;13.38;53.99
37291;BME280;23175;-33.706;151.094;2022-12-18T00:53:41;100515.73;;;14.22;52.40
37291;BME280;23175;-33.706;151.094;2022-12-18T00:56:11;100510.48;;;13.08;54.40
37291;BME280;23175;-33.706;151.094;2022-12-18T00:58:41;100508.47;;;13.80;51.90
37291;BME280;23175;-33.706;151.094;2022-12-18T01:01:11;100503.61;;;13.16;53.08
37291;BME280;23175;-33.706;151.094;2022-12-18T01:03:42;100506.60;;;13.86;50.92
37291;BME280;23175;-33.706;151.094;2022-12-18T01:06:14;100503.86;;;13.67;50.33
37291;BME280;23175;-33.706;151.094;2022-12-18T01:08:44;100498.85;;;13.59;51.44
37291;BME280;23175;-33.706;151.094;2022-12-18T01:11:16;100499.38;;;14.10;51.24
37291;BME280;23175;-33.706;151.094;2022-12-18T01:13:47;100496.79;;;13.90;50.37
37291;BME280;23175;-33.706;151.094;2022-12-18T01:16:18;100499.65;;;12.09;53.66
37291;BME280;23175;-33.706;151.094;2022-12-18T01:18:50;100507.32;;;14.08;50.67
37291;BME280;23175;-33.706;151.094;2022-12-18T01:21:26;100508.24;;;12.00;53.81
37291;BME280;23175;-33.706;151.094;2022-12-18T01:23:57;100500.73;;;12.36;52.94
37291;BME280;23175;-33.706;151.094;2022-12-18T01:26:27;100495.34;;;14.37;49.97
37291;BME280;23175;-33.706;151.094;2022-12-18T01:28:58;100490.93;;;13.82;49.32
37291;BME280;23175;-33.706;151.094;2022-12-18T01:31:30;100482.70;;;13.58;50.01
37291;BME280;23175;-33.706;151.094;2022-12-18T01:34:02;100493.01;;;13.65;50.45
37291;BME280;23175;-33.706;151.094;2022-12-18T01:36:34;100495.96;;;13.92;50.34
37291;BME280;23175;-33.706;151.094;2022-12-18T01:39:07;100503.37;;;14.61;49.21
37291;BME280;23175;-33.706;151.094;2022-12-18T01:41:40;100506.26;;;12.77;51.38
37291;BME280;23175;-33.706;151.094;2022-12-18T01:45:01;100504.75;;;12.23;53.88
37291;BME280;23175;-33.706;151.094;2022-12-18T01:47:36;100502.96;;;15.12;50.06
37291;BME280;23175;-33.706;151.094;2022-12-18T01:50:10;100499.97;;;13.22;52.69
37291;BME280;23175;-33.706;151.094;2022-12-18T01:52:45;100494.51;;;12.56;52.83
37291;BME280;23175;-33.706;151.094;2022-12-18T01:55:19;100490.67;;;14.42;49.86
37291;BME280;23175;-33.706;151.094;2022-12-18T01:57:52;100486.78;;;13.95;52.83
37291;BME280;23175;-33.706;151.094;2022-12-18T02:00:24;100484.71;;;13.35;51.81
37291;BME280;23175;-33.706;151.094;2022-12-18T02:02:55;100487.19;;;14.50;49.05
37291;BME280;23175;-33.706;151.094;2022-12-18T02:05:34;100488.46;;;12.95;50.39
37291;BME280;23175;-33.706;151.094;2022-12-18T02:08:13;100490.19;;;13.51;50.84
37291;BME280;23175;-33.706;151.094;2022-12-18T02:10:56;100495.19;;;13.43;52.07
37291;BME280;23175;-33.706;151.094;2022-12-18T02:13:36;100494.60;;;13.40;52.43
37291;BME280;23175;-33.706;151.094;2022-12-18T02:16:13;100488.04;;;13.47;52.43
37291;BME280;23175;-33.706;151.094;2022-12-18T02:18:51;100489.43;;;14.49;51.28
37291;BME280;23175;-33.706;151.094;2022-12-18T02:21:31;100496.28;;;14.22;50.19
37291;BME280;23175;-33.706;151.094;2022-12-18T02:24:14;100494.54;;;11.06;56.06
37291;BME280;23175;-33.706;151.094;2022-12-18T02:26:49;100496.98;;;10.81;57.30
37291;BME280;23175;-33.706;151.094;2022-12-18T02:29:23;100495.58;;;12.30;54.31
37291;BME280;23175;-33.706;151.094;2022-12-18T02:31:57;100496.61;;;13.78;50.63
37291;BME280;23175;-33.706;151.094;2022-12-18T02:34:30;100493.05;;;15.02;49.17
37291;BME280;23175;-33.706;151.094;2022-12-18T02:37:03;100498.64;;;13.63;52.21
37291;BME280;23175;-33.706;151.094;2022-12-18T02:39:35;100495.13;;;13.60;53.62
37291;BME280;23175;-33.706;151.094;2022-12-18T02:42:06;100500.46;;;11.38;56.64
37291;BME280;23175;-33.706;151.094;2022-12-18T02:44:42;100497.15;;;13.91;52.14
37291;BME280;23175;-33.706;151.094;2022-12-18T02:47:15;100497.29;;;12.41;54.67
37291;BME280;23175;-33.706;151.094;2022-12-18T02:49:55;100492.03;;;12.92;52.16
37291;BME280;23175;-33.706;151.094;2022-12-18T02:52:39;100489.27;;;11.61;54.27
37291;BME280;23175;-33.706;151.094;2022-12-18T02:55:23;100489.74;;;15.03;48.28
37291;BME280;23175;-33.706;151.094;2022-12-18T02:58:00;100481.78;;;12.68;50.05
37291;BME280;23175;-33.706;151.094;2022-12-18T03:00:35;100478.34;;;13.08;49.21
37291;BME280;23175;-33.706;151.094;2022-12-18T03:03:11;100473.49;;;14.98;46.45
37291;BME280;23175;-33.706;151.094;2022-12-18T03:05:49;100465.13;;;12.66;49.59
37291;BME280;23175;-33.706;151.094;2022-12-18T03:08:22;100463.08;;;12.51;49.80
37291;BME280;23175;-33.706;151.094;2022-12-18T03:10:58;100458.33;;;14.04;46.78
37291;BME280;23175;-33.706;151.094;2022-12-18T03:13:33;100444.57;;;14.46;45.30
37291;BME280;23175;-33.706;151.094;2022-12-18T03:16:09;100444.15;;;15.19;44.96
37291;BME280;23175;-33.706;151.094;2022-12-18T03:18:45;100441.78;;;15.29;43.98
37291;BME280;23175;-33.706;151.094;2022-12-18T03:21:17;100432.38;;;14.31;45.42
37291;BME280;23175;-33.706;151.094;2022-12-18T03:23:51;100432.04;;;14.73;44.58
37291;BME280;23175;-33.706;151.094;2022-12-18T03:26:24;100432.25;;;15.82;43.25
37291;BME280;23175;-33.706;151.094;2022-12-18T03:28:58;100426.34;;;15.51;42.75
37291;BME280;23175;-33.706;151.094;2022-12-18T03:31:30;100431.61;;;14.42;44.95
37291;BME280;23175;-33.706;151.094;2022-12-18T03:34:04;100431.59;;;14.59;45.33
37291;BME280;23175;-33.706;151.094;2022-12-18T03:36:38;100426.98;;;14.50;44.02
37291;BME280;23175;-33.706;151.094;2022-12-18T03:39:08;100419.70;;;14.46;43.88
37291;BME280;23175;-33.706;151.094;2022-12-18T03:41:46;100419.70;;;13.35;45.26
37291;BME280;23175;-33.706;151.094;2022-12-18T03:44:23;100419.76;;;14.85;42.08
37291;BME280;23175;-33.706;151.094;2022-12-18T03:47:02;100422.09;;;15.67;40.11
37291;BME280;23175;-33.706;151.094;2022-12-18T03:49:38;100419.17;;;15.69;41.35
37291;BME280;23175;-33.706;151.094;2022-12-18T03:52:14;100415.18;;;14.85;41.87
37291;BME280;23175;-33.706;151.094;2022-12-18T03:54:48;100412.63;;;14.93;40.93
37291;BME280;23175;-33.706;151.094;2022-12-18T03:57:20;100422.32;;;12.64;44.27
37291;BME280;23175;-33.706;151.094;2022-12-18T03:59:54;100418.26;;;12.97;45.68
37291;BME280;23175;-33.706;151.094;2022-12-18T04:02:26;100408.70;;;15.04;41.77
37291;BME280;23175;-33.706;151.094;2022-12-18T04:05:00;100412.57;;;14.36;42.72
37291;BME280;23175;-33.706;151.094;2022-12-18T04:07:33;100409.57;;;13.58;44.83
37291;BME280;23175;-33.706;151.094;2022-12-18T04:10:05;100402.76;;;13.68;44.19
37291;BME280;23175;-33.706;151.094;2022-12-18T04:12:38;100405.87;;;15.00;41.29
37291;BME280;23175;-33.706;151.094;2022-12-18T04:15:10;100399.53;;;14.90;41.37
37291;BME280;23175;-33.706;151.094;2022-12-18T04:17:46;100399.36;;;14.07;42.19
37291;BME280;23175;-33.706;151.094;2022-12-18T04:20:17;100393.96;;;14.72;40.94
37291;BME280;23175;-33.706;151.094;2022-12-18T04:22:47;100395.42;;;13.98;43.75
37291;BME280;23175;-33.706;151.094;2022-12-18T04:25:18;100383.66;;;15.88;39.68
37291;BME280;23175;-33.706;151.094;2022-12-18T04:27:47;100381.76;;;14.49;41.45
37291;BME280;23175;-33.706;151.094;2022-12-18T04:30:18;100383.02;;;14.06;40.31
37291;BME280;23175;-33.706;151.094;2022-12-18T04:32:48;100378.69;;;14.85;39.65
37291;BME280;23175;-33.706;151.094;2022-12-18T04:35:18;100386.27;;;15.10;40.37
37291;BME280;23175;-33.706;151.094;2022-12-18T04:37:48;100385.75;;;14.38;42.92
37291;BME280;23175;-33.706;151.094;2022-12-18T04:40:18;100389.71;;;13.13;42.26
37291;BME280;23175;-33.706;151.094;2022-12-18T04:42:48;100375.38;;;14.45;41.62
37291;BME280;23175;-33.706;151.094;2022-12-18T04:45:19;100380.78;;;12.96;43.77
37291;BME280;23175;-33.706;151.094;2022-12-18T04:47:49;100370.46;;;14.78;42.76
37291;BME280;23175;-33.706;151.094;2022-12-18T04:50:19;100376.20;;;13.65;42.50
37291;BME280;23175;-33.706;151.094;2022-12-18T04:52:49;100380.03;;;12.78;42.34
37291;BME280;23175;-33.706;151.094;2022-12-18T04:55:20;100371.99;;;13.02;42.13
37291;BME280;23175;-33.706;151.094;2022-12-18T04:57:50;100370.13;;;14.49;39.60
37291;BME280;23175;-33.706;151.094;2022-12-18T05:00:20;100371.23;;;13.12;41.20
37291;BME280;23175;-33.706;151.094;2022-12-18T05:02:50;100371.76;;;15.56;39.45
37291;BME280;23175;-33.706;151.094;2022-12-18T05:05:20;100371.69;;;13.71;42.29
37291;BME280;23175;-33.706;151.094;2022-12-18T05:07:50;100361.92;;;13.21;42.94
37291;BME280;23175;-33.706;151.094;2022-12-18T05:10:20;100360.29;;;15.62;41.69
37291;BME280;23175;-33.706;151.094;2022-12-18T05:12:51;100363.85;;;13.34;43.32
37291;BME280;23175;-33.706;151.094;2022-12-18T05:15:21;100358.19;;;13.89;42.98
37291;BME280;23175;-33.706;151.094;2022-12-18T05:17:51;100356.14;;;13.03;44.45
37291;BME280;23175;-33.706;151.094;2022-12-18T05:20:21;100345.17;;;14.82;41.19
37291;BME280;23175;-33.706;151.094;2022-12-18T05:22:52;100346.57;;;13.78;43.11
37291;BME280;23175;-33.706;151.094;2022-12-18T05:25:23;100361.95;;;12.82;43.76
37291;BME280;23175;-33.706;151.094;2022-12-18T05:27:54;100348.72;;;12.34;43.92
37291;BME280;23175;-33.706;151.094;2022-12-18T05:30:24;100347.15;;;12.90;43.17
37291;BME280;23175;-33.706;151.094;2022-12-18T05:32:54;100346.40;;;13.05;43.95
37291;BME280;23175;-33.706;151.094;2022-12-18T05:35:24;100340.79;;;13.96;42.25
37291;BME280;23175;-33.706;151.094;2022-12-18T05:37:54;100321.98;;;13.70;41.68
37291;BME280;23175;-33.706;151.094;2022-12-18T05:40:24;100326.37;;;14.25;40.48
37291;BME280;23175;-33.706;151.094;2022-12-18T05:42:55;100335.05;;;14.15;41.79
37291;BME280;23175;-33.706;151.094;2022-12-18T05:45:25;100322.46;;;13.51;42.96
37291;BME280;23175;-33.706;151.094;2022-12-18T05:47:56;100327.58;;;14.18;40.89
37291;BME280;23175;-33.706;151.094;2022-12-18T05:50:26;100318.30;;;14.37;39.68
37291;BME280;23175;-33.706;151.094;2022-12-18T05:52:56;100319.34;;;14.23;40.10
37291;BME280;23175;-33.706;151.094;2022-12-18T05:55:26;100307.85;;;15.69;37.83
37291;BME280;23175;-33.706;151.094;2022-12-18T05:57:57;100317.70;;;14.57;40.76
37291;BME280;23175;-33.706;151.094;2022-12-18T06:00:27;100305.00;;;14.78;37.62
37291;BME280;23175;-33.706;151.094;2022-12-18T06:02:57;100315.82;;;14.10;37.22
37291;BME280;23175;-33.706;151.094;2022-12-18T06:05:28;100310.28;;;15.40;36.28
37291;BME280;23175;-33.706;151.094;2022-12-18T06:07:57;100301.62;;;12.62;39.20
37291;BME280;23175;-33.706;151.094;2022-12-18T06:10:28;100305.23;;;13.75;38.35
37291;BME280;23175;-33.706;151.094;2022-12-18T06:12:58;100300.30;;;14.61;37.92
37291;BME280;23175;-33.706;151.094;2022-12-18T06:15:28;100318.08;;;14.33;39.37
37291;BME280;23175;-33.706;151.094;2022-12-18T06:17:59;100312.09;;;12.36;41.78
37291;BME280;23175;-33.706;151.094;2022-12-18T06:20:29;100313.89;;;14.88;38.15
37291;BME280;23175;-33.706;151.094;2022-12-18T06:22:59;100313.23;;;13.83;40.02
37291;BME280;23175;-33.706;151.094;2022-12-18T06:25:29;100311.71;;;14.14;40.47
37291;BME280;23175;-33.706;151.094;2022-12-18T06:28:00;100312.29;;;13.37;42.07
37291;BME280;23175;-33.706;151.094;2022-12-18T06:30:30;100332.67;;;12.81;42.79
37291;BME280;23175;-33.706;151.094;2022-12-18T06:33:00;100320.19;;;12.99;42.53
37291;BME280;23175;-33.706;151.094;2022-12-18T06:35:30;100328.27;;;12.74;43.38
37291;BME280;23175;-33.706;151.094;2022-12-18T06:38:03;100317.37;;;12.93;42.48
37291;BME280;23175;-33.706;151.094;2022-12-18T06:40:32;100323.86;;;13.37;42.10
37291;BME280;23175;-33.706;151.094;2022-12-18T06:43:03;100326.64;;;13.77;41.42
37291;BME280;23175;-33.706;151.094;2022-12-18T06:45:33;100332.23;;;13.00;43.97
37291;BME280;23175;-33.706;151.094;2022-12-18T06:48:03;100340.02;;;14.61;40.34
37291;BME280;23175;-33.706;151.094;2022-12-18T06:50:34;100336.46;;;14.01;40.88
37291;BME280;23175;-33.706;151.094;2022-12-18T06:53:04;100330.62;;;12.81;43.13
37291;BME280;23175;-33.706;151.094;2022-12-18T06:55:39;100330.45;;;13.32;40.92
37291;BME280;23175;-33.706;151.094;2022-12-18T06:58:09;100333.34;;;12.72;40.90
37291;BME280;23175;-33.706;151.094;2022-12-18T07:00:40;100340.32;;;13.05;39.51
37291;BME280;23175;-33.706;151.094;2022-12-18T07:03:10;100341.63;;;12.91;39.60
37291;BME280;23175;-33.706;151.094;2022-12-18T07:05:41;100343.42;;;12.66;40.21
37291;BME280;23175;-33.706;151.094;2022-12-18T07:08:11;100348.66;;;11.91;41.64
37291;BME280;23175;-33.706;151.094;2022-12-18T07:10:43;100342.70;;;13.14;39.48
37291;BME280;23175;-33.706;151.094;2022-12-18T07:13:13;100343.06;;;12.63;40.90
37291;BME280;23175;-33.706;151.094;2022-12-18T07:15:43;100349.67;;;12.79;41.50
37291;BME280;23175;-33.706;151.094;2022-12-18T07:18:13;100355.69;;;13.08;40.72
37291;BME280;23175;-33.706;151.094;2022-12-18T07:20:44;100349.53;;;12.64;42.71
37291;BME280;23175;-33.706;151.094;2022-12-18T07:23:14;100353.79;;;13.10;41.18
37291;BME280;23175;-33.706;151.094;2022-12-18T07:25:45;100357.51;;;12.71;42.04
37291;BME280;23175;-33.706;151.094;2022-12-18T07:28:15;100367.88;;;12.85;41.01
37291;BME280;23175;-33.706;151.094;2022-12-18T07:30:45;100362.52;;;13.59;40.51
37291;BME280;23175;-33.706;151.094;2022-12-18T07:33:16;100371.26;;;13.39;39.94
37291;BME280;23175;-33.706;151.094;2022-12-18T07:35:46;100365.47;;;13.35;41.17
37291;BME280;23175;-33.706;151.094;2022-12-18T07:38:16;100370.91;;;12.62;42.22
37291;BME280;23175;-33.706;151.094;2022-12-18T07:40:46;100375.53;;;14.12;41.27
37291;BME280;23175;-33.706;151.094;2022-12-18T07:43:17;100373.97;;;13.58;42.18
37291;BME280;23175;-33.706;151.094;2022-12-18T07:45:48;100382.40;;;13.46;42.59
37291;BME280;23175;-33.706;151.094;2022-12-18T07:48:19;100377.52;;;11.85;45.30
37291;BME280;23175;-33.706;151.094;2022-12-18T07:50:49;100383.92;;;13.14;42.84
37291;BME280;23175;-33.706;151.094;2022-12-18T07:53:19;100388.58;;;11.97;45.64
37291;BME280;23175;-33.706;151.094;2022-12-18T07:55:54;100384.86;;;13.76;42.68
37291;BME280;23175;-33.706;151.094;2022-12-18T07:58:24;100393.95;;;13.12;43.32
37291;BME280;23175;-33.706;151.094;2022-12-18T08:01:01;100402.18;;;12.01;44.54
37291;BME280;23175;-33.706;151.094;2022-12-18T08:03:31;100406.83;;;13.80;41.96
37291;BME280;23175;-33.706;151.094;2022-12-18T08:06:02;100405.47;;;14.59;41.07
37291;BME280;23175;-33.706;151.094;2022-12-18T08:08:33;100406.61;;;13.90;42.04
37291;BME280;23175;-33.706;151.094;2022-12-18T08:11:03;100409.01;;;14.46;42.08
37291;BME280;23175;-33.706;151.094;2022-12-18T08:13:33;100417.37;;;13.84;42.17
37291;BME280;23175;-33.706;151.094;2022-12-18T08:16:05;100414.28;;;15.66;40.55
37291;BME280;23175;-33.706;151.094;2022-12-18T08:18:36;100431.75;;;13.10;43.63
37291;BME280;23175;-33.706;151.094;2022-12-18T08:21:15;100441.94;;;13.16;43.75
37291;BME280;23175;-33.706;151.094;2022-12-18T08:23:46;100436.07;;;11.94;45.73
37291;BME280;23175;-33.706;151.094;2022-12-18T08:26:16;100441.53;;;13.28;44.24
37291;BME280;23175;-33.706;151.094;2022-12-18T08:28:46;100442.47;;;14.13;43.00
37291;BME280;23175;-33.706;151.094;2022-12-18T08:31:18;100449.89;;;14.33;42.09
37291;BME280;23175;-33.706;151.094;2022-12-18T08:33:51;100451.38;;;11.73;46.23
37291;BME280;23175;-33.706;151.094;2022-12-18T08:36:22;100458.64;;;12.81;45.38
37291;BME280;23175;-33.706;151.094;2022-12-18T08:38:53;100462.47;;;14.38;43.66
37291;BME280;23175;-33.706;151.094;2022-12-18T08:41:23;100460.35;;;16.31;40.88
37291;BME280;23175;-33.706;151.094;2022-12-18T08:43:53;100463.56;;;12.83;46.06
37291;BME280;23175;-33.706;151.094;2022-12-18T08:46:25;100469.78;;;13.41;44.82
37291;BME280;23175;-33.706;151.094;2022-12-18T08:48:56;100473.65;;;15.72;41.65
37291;BME280;23175;-33.706;151.094;2022-12-18T08:51:26;100475.83;;;11.53;46.95
37291;BME280;23175;-33.706;151.094;2022-12-18T08:53:56;100481.72;;;13.67;43.48
37291;BME280;23175;-33.706;151.094;2022-12-18T08:56:26;100482.98;;;11.55;46.78
37291;BME280;23175;-33.706;151.094;2022-12-18T08:58:56;100482.99;;;13.82;42.50
37291;BME280;23175;-33.706;151.094;2022-12-18T09:01:26;100483.71;;;14.03;42.69
37291;BME280;23175;-33.706;151.094;2022-12-18T09:03:57;100483.55;;;13.29;43.18
37291;BME280;23175;-33.706;151.094;2022-12-18T09:06:27;100485.86;;;15.01;40.98
37291;BME280;23175;-33.706;151.094;2022-12-18T09:08:58;100484.32;;;14.78;41.80
37291;BME280;23175;-33.706;151.094;2022-12-18T09:11:29;100493.61;;;12.43;44.69
37291;BME280;23175;-33.706;151.094;2022-12-18T09:14:01;100499.09;;;13.26;44.45
37291;BME280;23175;-33.706;151.094;2022-12-18T09:16:31;100507.77;;;13.80;45.95
37291;BME280;23175;-33.706;151.094;2022-12-18T09:19:04;100520.89;;;12.56;48.90
37291;BME280;23175;-33.706;151.094;2022-12-18T09:21:35;100511.82;;;11.49;50.52
37291;BME280;23175;-33.706;151.094;2022-12-18T09:24:08;100520.91;;;12.76;49.71
37291;BME280;23175;-33.706;151.094;2022-12-18T09:26:41;100517.04;;;11.72;50.23
37291;BME280;23175;-33.706;151.094;2022-12-18T09:29:11;100517.61;;;12.53;49.29
37291;BME280;23175;-33.706;151.094;2022-12-18T09:31:41;100511.93;;;11.03;51.09
37291;BME280;23175;-33.706;151.094;2022-12-18T09:34:12;100514.69;;;13.94;46.52
37291;BME280;23175;-33.706;151.094;2022-12-18T09:36:42;100516.14;;;13.65;46.05
37291;BME280;23175;-33.706;151.094;2022-12-18T09:39:12;100512.20;;;12.20;48.09
37291;BME280;23175;-33.706;151.094;2022-12-18T09:41:46;100511.58;;;13.66;45.41
37291;BME280;23175;-33.706;151.094;2022-12-18T09:44:22;100513.43;;;12.84;47.67
37291;BME280;23175;-33.706;151.094;2022-12-18T09:46:59;100518.07;;;13.45;46.32
37291;BME280;23175;-33.706;151.094;2022-12-18T09:49:32;100520.34;;;12.09;48.21
37291;BME280;23175;-33.706;151.094;2022-12-18T09:52:09;100526.42;;;12.45;48.06
37291;BME280;23175;-33.706;151.094;2022-12-18T09:54:42;100525.52;;;12.71;48.12
37291;BME280;23175;-33.706;151.094;2022-12-18T09:57:16;100529.53;;;13.82;46.50
37291;BME280;23175;-33.706;151.094;2022-12-18T09:59:53;100529.93;;;13.98;45.62
37291;BME280;23175;-33.706;151.094;2022-12-18T10:02:26;100529.05;;;12.37;48.22
37291;BME280;23175;-33.706;151.094;2022-12-18T10:05:03;100525.99;;;13.62;46.60
37291;BME280;23175;-33.706;151.094;2022-12-18T10:07:42;100529.75;;;14.09;47.01
37291;BME280;23175;-33.706;151.094;2022-12-18T10:10:30;100529.31;;;12.74;47.80
37291;BME280;23175;-33.706;151.094;2022-12-18T10:13:09;100530.88;;;14.93;44.34
37291;BME280;23175;-33.706;151.094;2022-12-18T10:15:50;100534.60;;;14.32;46.20
37291;BME280;23175;-33.706;151.094;2022-12-18T10:18:32;100536.38;;;14.43;45.70
37291;BME280;23175;-33.706;151.094;2022-12-18T10:21:09;100533.52;;;11.75;48.68
37291;BME280;23175;-33.706;151.094;2022-12-18T10:23:44;100533.35;;;12.60;47.71
37291;BME280;23175;-33.706;151.094;2022-12-18T10:26:17;100534.20;;;14.97;44.61
37291;BME280;23175;-33.706;151.094;2022-12-18T10:28:54;100537.66;;;14.00;46.15
37291;BME280;23175;-33.706;151.094;2022-12-18T10:31:26;100534.94;;;13.57;46.07
37291;BME280;23175;-33.706;151.094;2022-12-18T10:33:57;100533.16;;;16.44;41.57
37291;BME280;23175;-33.706;151.094;2022-12-18T10:36:27;100535.48;;;14.13;44.96
37291;BME280;23175;-33.706;151.094;2022-12-18T10:39:16;100539.43;;;14.30;44.77
37291;BME280;23175;-33.706;151.094;2022-12-18T10:41:46;100536.44;;;15.69;42.85
37291;BME280;23175;-33.706;151.094;2022-12-18T10:44:21;100534.35;;;16.78;41.14
37291;BME280;23175;-33.706;151.094;2022-12-18T10:47:01;100531.69;;;14.82;44.07
37291;BME280;23175;-33.706;151.094;2022-12-18T10:49:33;100529.74;;;16.39;41.66
37291;BME280;23175;-33.706;151.094;2022-12-18T10:52:13;100531.12;;;15.60;42.41
37291;BME280;23175;-33.706;151.094;2022-12-18T10:54:51;100529.99;;;14.17;43.95
37291;BME280;23175;-33.706;151.094;2022-12-18T10:57:34;100522.08;;;15.36;44.22
37291;BME280;23175;-33.706;151.094;2022-12-18T11:00:28;100519.11;;;16.39;42.20
37291;BME280;23175;-33.706;151.094;2022-12-18T11:02:58;100525.01;;;14.18;44.55
37291;BME280;23175;-33.706;151.094;2022-12-18T11:05:31;100525.84;;;12.90;47.79
37291;BME280;23175;-33.706;151.094;2022-12-18T11:08:02;100525.60;;;13.72;47.47
37291;BME280;23175;-33.706;151.094;2022-12-18T11:10:35;100520.57;;;10.78;51.70
37291;BME280;23175;-33.706;151.094;2022-12-18T11:13:15;100525.57;;;13.91;46.93
37291;BME280;23175;-33.706;151.094;2022-12-18T11:15:46;100527.80;;;14.76;45.50
37291;BME280;23175;-33.706;151.094;2022-12-18T11:18:22;100522.57;;;13.83;45.76
37291;BME280;23175;-33.706;151.094;2022-12-18T11:20:56;100522.99;;;12.63;47.06
37291;BME280;23175;-33.706;151.094;2022-12-18T11:23:28;100519.58;;;13.49;46.19
37291;BME280;23175;-33.706;151.094;2022-12-18T11:26:00;100517.80;;;12.31;48.19
37291;BME280;23175;-33.706;151.094;2022-12-18T11:28:37;100515.84;;;12.04;48.39
37291;BME280;23175;-33.706;151.094;2022-12-18T11:31:20;100509.48;;;15.93;43.07
37291;BME280;23175;-33.706;151.094;2022-12-18T11:33:57;100515.03;;;13.00;47.20
37291;BME280;23175;-33.706;151.094;2022-12-18T11:36:32;100512.12;;;14.51;45.10
37291;BME280;23175;-33.706;151.094;2022-12-18T11:39:10;100518.57;;;12.66;48.10
37291;BME280;23175;-33.706;151.094;2022-12-18T11:41:48;100520.25;;;12.86;47.71
37291;BME280;23175;-33.706;151.094;2022-12-18T11:44:26;100521.55;;;15.19;44.59
37291;BME280;23175;-33.706;151.094;2022-12-18T11:47:03;100519.74;;;11.54;49.83
37291;BME280;23175;-33.706;151.094;2022-12-18T11:49:37;100524.39;;;12.79;49.64
37291;BME280;23175;-33.706;151.094;2022-12-18T11:52:14;100525.72;;;12.53;49.63
37291;BME280;23175;-33.706;151.094;2022-12-18T11:54:46;100524.82;;;13.07;49.56
37291;BME280;23175;-33.706;151.094;2022-12-18T11:57:27;100526.94;;;13.72;48.28
37291;BME280;23175;-33.706;151.094;2022-12-18T12:00:07;100524.39;;;13.43;48.64
37291;BME280;23175;-33.706;151.094;2022-12-18T12:03:21;100522.54;;;15.33;45.42
37291;BME280;23175;-33.706;151.094;2022-12-18T12:06:01;100520.04;;;11.18;52.06
37291;BME280;23175;-33.706;151.094;2022-12-18T12:08:49;100512.53;;;12.68;50.40
37291;BME280;23175;-33.706;151.094;2022-12-18T12:11:30;100511.18;;;12.40;50.39
37291;BME280;23175;-33.706;151.094;2022-12-18T12:14:17;100506.61;;;14.99;46.81
37291;BME280;23175;-33.706;151.094;2022-12-18T12:16:56;100506.97;;;15.44;46.02
37291;BME280;23175;-33.706;151.094;2022-12-18T12:19:39;100509.67;;;13.51;49.03
37291;BME280;23175;-33.706;151.094;2022-12-18T12:22:18;100507.64;;;14.81;47.05
37291;BME280;23175;-33.706;151.094;2022-12-18T12:24:58;100504.22;;;12.28;50.56
37291;BME280;23175;-33.706;151.094;2022-12-18T12:27:39;100505.64;;;14.78;47.53
37291;BME280;23175;-33.706;151.094;2022-12-18T12:30:16;100507.30;;;14.02;48.34
37291;BME280;23175;-33.706;151.094;2022-12-18T12:32:58;100512.62;;;14.99;46.42
37291;BME280;23175;-33.706;151.094;2022-12-18T12:35:39;100521.99;;;14.81;46.92
37291;BME280;23175;-33.706;151.094;2022-12-18T12:38:14;100522.45;;;14.66;48.75
37291;BME280;23175;-33.706;151.094;2022-12-18T12:40:51;100522.13;;;14.28;49.81
37291;BME280;23175;-33.706;151.094;2022-12-18T12:43:28;100522.96;;;15.81;48.44
37291;BME280;23175;-33.706;151.094;2022-12-18T12:46:04;100521.58;;;14.39;51.05
37291;BME280;23175;-33.706;151.094;2022-12-18T12:48:40;100514.44;;;14.05;52.12
37291;BME280;23175;-33.706;151.094;2022-12-18T12:51:15;100511.18;;;12.99;53.84